Albion, Washington
Current Conditions -  °F | °C
As of 1:53 AM on Saturday 20 Dec 2014 (Local Time) from KPUW Reporting Station
Clear Clear  
Wind Chill: 26°   Ceiling: Unl
Heat Index: 35°   Visibility: 10mi
Dew Point: 33°   Wind: 14mph
Humidity: 92%   Direction: 100°E
Pressure: 29.96"   Gusts: NA
Location:  46.79°N, 117.25°W
Report Text: KPUW 200953Z AUTO 10012KT 10SM CLR 02/01 A2996 RMK AO2 SLP162 T00170006
Loading
Personal Weather Stations






























Interactive Weather Map New forecast layout! Learn more

10-Day Weather Forecast

Advertisements
Track Severe Weather on mobile